createdAt,value
2023-01-25T00:00:21.387Z,19.17
2023-01-25T00:05:13.129Z,15.65
2023-01-25T00:10:05.220Z,14.23
2023-01-25T00:14:56.991Z,13.32
2023-01-25T00:19:48.704Z,17.27
2023-01-25T00:24:40.410Z,15.10
2023-01-25T00:29:32.109Z,14.23
2023-01-25T00:34:26.735Z,15.27
2023-01-25T00:39:18.512Z,19.10
2023-01-25T00:44:10.822Z,16.05
2023-01-25T00:49:02.673Z,13.63
2023-01-25T00:53:54.581Z,18.00
2023-01-25T00:58:46.484Z,14.88
2023-01-25T01:03:39.040Z,22.15
2023-01-25T01:08:36.781Z,19.77
2023-01-25T01:13:29.887Z,19.70
2023-01-25T01:18:22.843Z,18.95
2023-01-25T01:23:14.530Z,20.73
2023-01-25T01:28:06.182Z,20.40
2023-01-25T01:32:58.172Z,24.73
2023-01-25T01:37:50.094Z,20.05
2023-01-25T01:42:58.847Z,21.67
2023-01-25T01:52:43.179Z,22.25
2023-01-25T01:57:40.937Z,24.30
2023-01-25T02:07:34.695Z,24.25
2023-01-25T02:12:27.702Z,23.33
2023-01-25T02:17:25.805Z,26.40
2023-01-25T02:22:23.757Z,26.23
2023-01-25T02:27:16.023Z,24.45
2023-01-25T02:32:07.772Z,27.70
2023-01-25T02:37:00.073Z,28.73
2023-01-25T02:41:51.851Z,26.17
2023-01-25T02:46:53.772Z,24.77
2023-01-25T02:51:49.612Z,27.13
2023-01-25T02:56:41.586Z,29.38
2023-01-25T03:01:35.507Z,25.90
2023-01-25T03:06:27.918Z,25.17
2023-01-25T03:11:19.925Z,27.42
2023-01-25T03:16:13.234Z,27.42
2023-01-25T03:21:19.694Z,27.58
2023-01-25T03:26:17.192Z,29.08
2023-01-25T03:31:25.935Z,32.08
2023-01-25T03:36:17.761Z,32.58
2023-01-25T03:41:09.977Z,29.92
2023-01-25T03:46:02.330Z,29.67
2023-01-25T03:50:58.606Z,30.38
2023-01-25T03:55:51.714Z,32.35
2023-01-25T04:00:44.856Z,34.10
2023-01-25T04:05:37.619Z,31.77
2023-01-25T04:10:29.512Z,32.55
2023-01-25T04:15:21.271Z,32.92
2023-01-25T04:20:13.862Z,30.98
2023-01-25T04:25:06.846Z,31.02
2023-01-25T04:29:59.471Z,29.25
2023-01-25T04:34:52.016Z,31.27
2023-01-25T04:39:47.238Z,29.65
2023-01-25T04:44:38.983Z,28.05
2023-01-25T04:49:30.872Z,33.85
2023-01-25T04:54:22.634Z,31.83
2023-01-25T04:59:14.425Z,28.55
2023-01-25T05:04:06.341Z,29.27
2023-01-25T05:09:04.989Z,27.00
2023-01-25T05:13:59.365Z,30.65
2023-01-25T05:18:56.231Z,32.00
2023-01-25T05:23:56.443Z,33.95
2023-01-25T05:28:48.553Z,35.35
2023-01-25T05:33:48.429Z,32.15
2023-01-25T05:38:40.187Z,31.80
2023-01-25T05:43:34.565Z,33.80
2023-01-25T05:48:29.523Z,39.08
2023-01-25T05:53:27.453Z,32.67
2023-01-25T05:58:19.228Z,37.63
2023-01-25T06:03:11.267Z,33.13
2023-01-25T06:08:04.835Z,36.30
2023-01-25T06:13:12.653Z,35.50
2023-01-25T06:18:04.670Z,39.33
2023-01-25T06:23:22.399Z,36.53
2023-01-25T06:28:14.109Z,39.88
2023-01-25T06:33:05.753Z,38.47
2023-01-25T06:37:58.699Z,38.40
2023-01-25T06:42:50.493Z,42.63
2023-01-25T06:47:42.308Z,39.45
2023-01-25T06:52:36.558Z,47.92
2023-01-25T06:57:29.443Z,45.92
2023-01-25T07:02:21.758Z,43.55
2023-01-25T07:07:13.494Z,43.80
2023-01-25T07:12:05.606Z,49.38
2023-01-25T07:21:18.596Z,49.45
2023-01-25T07:26:22.342Z,48.77
2023-01-25T07:31:15.551Z,50.28
2023-01-25T07:36:09.875Z,47.20
2023-01-25T07:41:02.742Z,51.67
2023-01-25T07:45:54.635Z,45.42
2023-01-25T07:50:49.711Z,46.97
2023-01-25T07:55:41.634Z,47.38
2023-01-25T08:00:33.419Z,56.95
2023-01-25T08:05:25.673Z,52.13
2023-01-25T08:10:17.469Z,58.60
2023-01-25T08:15:10.131Z,51.92
2023-01-25T08:20:02.349Z,50.58
2023-01-25T08:24:54.624Z,57.38
2023-01-25T08:29:47.278Z,58.05
2023-01-25T08:34:39.934Z,57.08
2023-01-25T08:39:31.753Z,48.53
2023-01-25T08:44:25.988Z,48.90
2023-01-25T08:49:18.093Z,46.17
2023-01-25T08:54:12.307Z,49.85
2023-01-25T08:59:04.132Z,50.85
2023-01-25T09:03:56.052Z,45.58
2023-01-25T09:08:48.240Z,47.22
2023-01-25T09:13:43.718Z,41.78
2023-01-25T09:18:40.375Z,50.45
2023-01-25T09:23:33.287Z,45.08
2023-01-25T09:28:33.184Z,54.28
2023-01-25T09:33:30.707Z,43.92
2023-01-25T09:38:22.945Z,43.50
2023-01-25T09:43:51.685Z,37.17
2023-01-25T09:49:12.393Z,37.63
2023-01-25T09:54:04.706Z,38.35
2023-01-25T09:59:28.691Z,38.83
2023-01-25T10:04:24.115Z,36.97
2023-01-25T10:09:30.512Z,33.17
2023-01-25T10:14:22.422Z,28.23
2023-01-25T10:19:23.086Z,35.58
2023-01-25T10:24:36.691Z,32.00
2023-01-25T10:29:31.751Z,30.52
2023-01-25T10:34:34.137Z,30.38
2023-01-25T10:39:29.049Z,30.40
2023-01-25T10:44:26.599Z,32.95
2023-01-25T10:49:47.636Z,26.35
2023-01-25T10:54:39.549Z,30.30
2023-01-25T10:59:31.377Z,27.25
2023-01-25T11:04:35.732Z,26.95
2023-01-25T11:09:33.837Z,25.15
2023-01-25T11:14:28.080Z,32.30
2023-01-25T11:19:32.210Z,33.33
2023-01-25T11:24:30.682Z,31.83
2023-01-25T11:34:21.081Z,30.00
2023-01-25T11:39:15.905Z,32.88
2023-01-25T11:44:39.929Z,31.27
2023-01-25T11:49:58.791Z,30.85
2023-01-25T11:55:10.256Z,30.35
2023-01-25T12:00:36.404Z,28.15
2023-01-25T12:05:43.746Z,30.08
2023-01-25T12:11:07.265Z,33.13
2023-01-25T12:15:58.997Z,31.52
2023-01-25T12:21:30.877Z,27.13
2023-01-25T12:26:35.881Z,38.50
2023-01-25T12:31:44.079Z,30.52
2023-01-25T12:36:40.682Z,26.98
2023-01-25T12:41:52.161Z,25.58
2023-01-25T12:47:25.928Z,24.40
2023-01-25T12:52:32.345Z,26.65
2023-01-25T12:57:32.743Z,28.63
2023-01-25T13:02:45.786Z,30.48
2023-01-25T13:07:44.601Z,29.75
2023-01-25T13:12:58.967Z,29.20
2023-01-25T13:17:50.731Z,27.95
2023-01-25T13:22:45.509Z,36.38
2023-01-25T13:27:37.449Z,28.15
2023-01-25T13:32:29.826Z,24.85
2023-01-25T13:37:23.389Z,23.27
2023-01-25T13:42:27.163Z,21.27
2023-01-25T13:47:38.045Z,20.10
2023-01-25T13:52:32.959Z,22.33
2023-01-25T13:57:29.983Z,18.77
2023-01-25T14:02:25.359Z,22.02
2023-01-25T14:07:20.792Z,22.77
2023-01-25T14:12:16.306Z,18.95
2023-01-25T14:17:23.235Z,23.00
2023-01-25T14:22:20.591Z,22.25
2023-01-25T14:27:15.098Z,16.83
2023-01-25T14:32:07.122Z,16.52
2023-01-25T14:37:26.198Z,21.63
2023-01-25T14:42:18.675Z,21.42
2023-01-25T14:47:24.334Z,21.73
2023-01-25T14:52:19.659Z,23.30
2023-01-25T14:57:42.445Z,23.10
2023-01-25T15:03:05.797Z,21.85
2023-01-25T15:08:28.869Z,21.15
2023-01-25T15:13:28.497Z,24.95
2023-01-25T15:18:49.552Z,22.20
2023-01-25T15:23:46.800Z,25.90
2023-01-25T15:28:38.614Z,23.08
2023-01-25T15:33:32.677Z,23.02
2023-01-25T15:38:25.272Z,24.25
2023-01-25T15:43:19.361Z,22.90
2023-01-25T15:48:29.397Z,20.85
2023-01-25T15:53:21.469Z,19.23
2023-01-25T15:58:29.414Z,20.08
2023-01-25T16:03:21.366Z,19.97
2023-01-25T16:08:17.129Z,20.02
2023-01-25T16:13:10.129Z,18.30
2023-01-25T16:18:01.900Z,16.63
2023-01-25T16:22:53.720Z,18.02
2023-01-25T16:27:45.702Z,27.67
2023-01-25T16:32:37.491Z,19.80
2023-01-25T16:37:29.343Z,18.13
2023-01-25T16:42:22.678Z,18.98
2023-01-25T16:47:15.574Z,24.35
2023-01-25T16:52:07.529Z,24.15
2023-01-25T16:57:01.757Z,35.35
2023-01-25T17:01:57.726Z,31.13
2023-01-25T17:06:50.657Z,35.67
2023-01-25T17:11:42.875Z,31.92
2023-01-25T17:16:35.007Z,38.38
2023-01-25T17:21:27.796Z,32.63
2023-01-25T17:26:21.591Z,43.83
2023-01-25T17:31:19.436Z,34.38
2023-01-25T17:36:11.962Z,33.95
2023-01-25T17:41:08.569Z,29.45
2023-01-25T17:46:00.643Z,34.17
2023-01-25T17:51:02.891Z,31.27
2023-01-25T17:55:55.625Z,31.05
2023-01-25T18:00:47.433Z,29.85
2023-01-25T18:05:39.568Z,29.33
2023-01-25T18:10:32.006Z,30.00
2023-01-25T18:15:24.105Z,28.52
2023-01-25T18:20:16.010Z,31.83
2023-01-25T18:25:34.794Z,44.10
2023-01-25T18:30:29.874Z,35.13
2023-01-25T18:35:21.836Z,33.10
2023-01-25T18:40:15.317Z,38.15
2023-01-25T18:45:09.440Z,38.65
2023-01-25T18:50:01.411Z,46.03
2023-01-25T18:54:53.630Z,39.67
2023-01-25T18:59:45.739Z,38.58
2023-01-25T19:04:37.564Z,52.85
2023-01-25T19:09:29.385Z,39.75
2023-01-25T19:14:22.329Z,40.58
2023-01-25T19:19:14.186Z,39.50
2023-01-25T19:24:10.747Z,42.05
2023-01-25T19:29:02.701Z,41.40
2023-01-25T19:34:02.802Z,34.17
2023-01-25T19:38:55.231Z,32.65
2023-01-25T19:43:48.097Z,31.67
2023-01-25T19:48:40.966Z,34.70
2023-01-25T19:53:32.762Z,41.22
2023-01-25T19:58:27.020Z,29.63
2023-01-25T20:03:18.849Z,38.85
2023-01-25T20:08:10.632Z,30.63
2023-01-25T20:13:02.485Z,32.30
2023-01-25T20:17:54.240Z,37.28
2023-01-25T20:22:49.324Z,34.28
2023-01-25T20:27:41.117Z,41.75
2023-01-25T20:32:36.300Z,39.42
2023-01-25T20:37:28.072Z,32.63
2023-01-25T20:42:19.862Z,41.03
2023-01-25T20:47:11.647Z,34.75
2023-01-25T20:52:05.334Z,34.17
2023-01-25T20:56:57.992Z,37.50
2023-01-25T21:01:50.735Z,30.88
2023-01-25T21:06:43.094Z,34.65
2023-01-25T21:11:34.968Z,38.47
2023-01-25T21:16:26.892Z,42.33
2023-01-25T21:21:23.243Z,39.63
2023-01-25T21:26:20.310Z,30.90
2023-01-25T21:31:16.091Z,34.60
2023-01-25T21:36:09.964Z,34.05
2023-01-25T21:41:03.325Z,35.42
2023-01-25T21:46:18.421Z,35.47
2023-01-25T21:51:31.958Z,29.95
2023-01-25T21:56:23.783Z,30.92
2023-01-25T22:01:15.623Z,33.92
2023-01-25T22:06:07.957Z,29.73
2023-01-25T22:11:04.552Z,29.17
2023-01-25T22:16:00.131Z,28.52
2023-01-25T22:21:02.579Z,35.78
2023-01-25T22:26:22.015Z,39.22
2023-01-25T22:31:15.974Z,30.27
2023-01-25T22:36:08.682Z,35.97
2023-01-25T22:41:27.695Z,34.45
2023-01-25T22:46:22.155Z,34.42
2023-01-25T22:51:19.845Z,36.45
2023-01-25T22:56:13.859Z,37.93
2023-01-25T23:01:19.676Z,32.78
2023-01-25T23:06:13.987Z,28.60
2023-01-25T23:11:12.873Z,30.73
2023-01-25T23:16:05.479Z,34.67
2023-01-25T23:20:57.305Z,32.85
2023-01-25T23:25:49.461Z,33.15
2023-01-25T23:30:41.261Z,29.65
2023-01-25T23:35:33.102Z,32.63
2023-01-25T23:40:24.934Z,35.08
2023-01-25T23:45:16.812Z,31.38
2023-01-25T23:50:09.878Z,32.03
2023-01-25T23:55:02.175Z,35.17
2023-01-25T23:59:54.017Z,30.73
